sensor_id;sensor_type;location;lat;lon;timestamp;P1;durP1;ratioP1;P2;durP2;ratioP2
23866;SDS011;12114;53.404;-1.502;2023-07-13T00:00:45;3.97;;;1.55;;
23866;SDS011;12114;53.404;-1.502;2023-07-13T00:03:29;9.20;;;2.17;;
23866;SDS011;12114;53.404;-1.502;2023-07-13T00:06:19;5.63;;;1.83;;
23866;SDS011;12114;53.404;-1.502;2023-07-13T00:09:04;6.73;;;1.90;;
23866;SDS011;12114;53.404;-1.502;2023-07-13T00:11:51;5.63;;;1.90;;
23866;SDS011;12114;53.404;-1.502;2023-07-13T00:14:36;6.65;;;1.95;;
23866;SDS011;12114;53.404;-1.502;2023-07-13T00:17:20;9.50;;;2.35;;
23866;SDS011;12114;53.404;-1.502;2023-07-13T00:20:04;4.45;;;1.85;;
23866;SDS011;12114;53.404;-1.502;2023-07-13T00:22:48;7.53;;;2.33;;
23866;SDS011;12114;53.404;-1.502;2023-07-13T00:25:33;5.60;;;1.77;;
23866;SDS011;12114;53.404;-1.502;2023-07-13T00:28:17;6.85;;;2.20;;
23866;SDS011;12114;53.404;-1.502;2023-07-13T00:31:01;11.63;;;2.53;;
23866;SDS011;12114;53.404;-1.502;2023-07-13T00:33:45;7.90;;;2.10;;
23866;SDS011;12114;53.404;-1.502;2023-07-13T00:36:29;7.80;;;2.00;;
23866;SDS011;12114;53.404;-1.502;2023-07-13T00:39:13;6.63;;;2.40;;
23866;SDS011;12114;53.404;-1.502;2023-07-13T00:41:57;8.27;;;2.15;;
23866;SDS011;12114;53.404;-1.502;2023-07-13T00:44:59;7.07;;;2.05;;
23866;SDS011;12114;53.404;-1.502;2023-07-13T00:47:44;6.43;;;1.88;;
23866;SDS011;12114;53.404;-1.502;2023-07-13T00:50:28;6.97;;;2.15;;
23866;SDS011;12114;53.404;-1.502;2023-07-13T00:53:11;6.55;;;2.33;;
23866;SDS011;12114;53.404;-1.502;2023-07-13T00:55:56;5.70;;;1.90;;
23866;SDS011;12114;53.404;-1.502;2023-07-13T00:58:40;10.77;;;2.10;;
23866;SDS011;12114;53.404;-1.502;2023-07-13T01:01:24;7.90;;;2.00;;
23866;SDS011;12114;53.404;-1.502;2023-07-13T01:04:08;7.43;;;2.10;;
23866;SDS011;12114;53.404;-1.502;2023-07-13T01:06:53;10.30;;;2.37;;
23866;SDS011;12114;53.404;-1.502;2023-07-13T01:09:37;4.43;;;2.08;;
23866;SDS011;12114;53.404;-1.502;2023-07-13T01:12:21;7.45;;;2.28;;
23866;SDS011;12114;53.404;-1.502;2023-07-13T01:15:05;9.07;;;2.30;;
23866;SDS011;12114;53.404;-1.502;2023-07-13T01:17:50;4.73;;;1.90;;
23866;SDS011;12114;53.404;-1.502;2023-07-13T01:20:34;7.50;;;1.92;;
23866;SDS011;12114;53.404;-1.502;2023-07-13T01:23:20;7.35;;;2.03;;
23866;SDS011;12114;53.404;-1.502;2023-07-13T01:26:05;5.13;;;1.63;;
23866;SDS011;12114;53.404;-1.502;2023-07-13T01:28:49;3.70;;;1.42;;
23866;SDS011;12114;53.404;-1.502;2023-07-13T01:31:33;4.28;;;1.80;;
23866;SDS011;12114;53.404;-1.502;2023-07-13T01:34:17;5.63;;;1.70;;
23866;SDS011;12114;53.404;-1.502;2023-07-13T01:37:00;4.60;;;1.70;;
23866;SDS011;12114;53.404;-1.502;2023-07-13T01:39:44;4.90;;;1.80;;
23866;SDS011;12114;53.404;-1.502;2023-07-13T01:42:28;4.47;;;1.40;;
23866;SDS011;12114;53.404;-1.502;2023-07-13T01:45:12;3.45;;;1.27;;
23866;SDS011;12114;53.404;-1.502;2023-07-13T01:47:56;4.25;;;1.40;;
23866;SDS011;12114;53.404;-1.502;2023-07-13T01:50:41;2.70;;;1.23;;
23866;SDS011;12114;53.404;-1.502;2023-07-13T01:53:25;3.05;;;1.10;;
23866;SDS011;12114;53.404;-1.502;2023-07-13T01:56:09;2.92;;;1.25;;
23866;SDS011;12114;53.404;-1.502;2023-07-13T01:58:53;4.57;;;1.67;;
23866;SDS011;12114;53.404;-1.502;2023-07-13T02:01:37;5.55;;;1.80;;
23866;SDS011;12114;53.404;-1.502;2023-07-13T02:04:21;6.43;;;2.45;;
23866;SDS011;12114;53.404;-1.502;2023-07-13T02:07:05;3.88;;;2.10;;
23866;SDS011;12114;53.404;-1.502;2023-07-13T02:09:49;7.07;;;2.22;;
23866;SDS011;12114;53.404;-1.502;2023-07-13T02:12:33;5.40;;;2.50;;
23866;SDS011;12114;53.404;-1.502;2023-07-13T02:15:17;8.40;;;2.90;;
23866;SDS011;12114;53.404;-1.502;2023-07-13T02:18:01;6.07;;;2.88;;
23866;SDS011;12114;53.404;-1.502;2023-07-13T02:20:47;8.68;;;2.90;;
23866;SDS011;12114;53.404;-1.502;2023-07-13T02:23:31;8.43;;;3.20;;
23866;SDS011;12114;53.404;-1.502;2023-07-13T02:26:15;11.75;;;3.58;;
23866;SDS011;12114;53.404;-1.502;2023-07-13T02:28:59;6.72;;;2.97;;
23866;SDS011;12114;53.404;-1.502;2023-07-13T02:31:43;8.00;;;3.00;;
23866;SDS011;12114;53.404;-1.502;2023-07-13T02:34:27;5.00;;;2.72;;
23866;SDS011;12114;53.404;-1.502;2023-07-13T02:37:11;11.02;;;3.60;;
23866;SDS011;12114;53.404;-1.502;2023-07-13T02:39:55;7.55;;;3.40;;
23866;SDS011;12114;53.404;-1.502;2023-07-13T02:42:39;6.93;;;3.95;;
23866;SDS011;12114;53.404;-1.502;2023-07-13T02:45:23;9.20;;;3.78;;
23866;SDS011;12114;53.404;-1.502;2023-07-13T02:48:07;6.63;;;3.47;;
23866;SDS011;12114;53.404;-1.502;2023-07-13T02:50:51;12.43;;;3.88;;
23866;SDS011;12114;53.404;-1.502;2023-07-13T02:53:35;8.90;;;4.25;;
23866;SDS011;12114;53.404;-1.502;2023-07-13T02:56:21;12.07;;;4.15;;
23866;SDS011;12114;53.404;-1.502;2023-07-13T02:59:05;7.40;;;4.03;;
23866;SDS011;12114;53.404;-1.502;2023-07-13T03:01:49;10.60;;;4.78;;
23866;SDS011;12114;53.404;-1.502;2023-07-13T03:04:35;6.05;;;4.18;;
23866;SDS011;12114;53.404;-1.502;2023-07-13T03:07:19;9.88;;;4.70;;
23866;SDS011;12114;53.404;-1.502;2023-07-13T03:10:03;10.02;;;5.18;;
23866;SDS011;12114;53.404;-1.502;2023-07-13T03:12:47;9.88;;;4.50;;
23866;SDS011;12114;53.404;-1.502;2023-07-13T03:15:31;8.50;;;4.93;;
23866;SDS011;12114;53.404;-1.502;2023-07-13T03:18:15;8.55;;;5.28;;
23866;SDS011;12114;53.404;-1.502;2023-07-13T03:20:59;10.50;;;5.38;;
23866;SDS011;12114;53.404;-1.502;2023-07-13T03:23:43;7.45;;;5.22;;
23866;SDS011;12114;53.404;-1.502;2023-07-13T03:26:28;9.10;;;5.05;;
23866;SDS011;12114;53.404;-1.502;2023-07-13T03:29:11;9.02;;;5.20;;
23866;SDS011;12114;53.404;-1.502;2023-07-13T03:31:55;8.93;;;5.05;;
23866;SDS011;12114;53.404;-1.502;2023-07-13T03:34:39;8.70;;;5.05;;
23866;SDS011;12114;53.404;-1.502;2023-07-13T03:37:23;9.95;;;5.03;;
23866;SDS011;12114;53.404;-1.502;2023-07-13T03:40:08;11.32;;;5.30;;
23866;SDS011;12114;53.404;-1.502;2023-07-13T03:42:53;10.30;;;5.57;;
23866;SDS011;12114;53.404;-1.502;2023-07-13T03:45:40;11.35;;;5.28;;
23866;SDS011;12114;53.404;-1.502;2023-07-13T03:48:24;9.88;;;5.63;;
23866;SDS011;12114;53.404;-1.502;2023-07-13T03:51:08;8.63;;;5.30;;
23866;SDS011;12114;53.404;-1.502;2023-07-13T03:53:52;9.88;;;5.30;;
23866;SDS011;12114;53.404;-1.502;2023-07-13T03:56:36;10.55;;;5.85;;
23866;SDS011;12114;53.404;-1.502;2023-07-13T03:59:20;7.18;;;4.90;;
23866;SDS011;12114;53.404;-1.502;2023-07-13T04:02:04;8.68;;;5.15;;
23866;SDS011;12114;53.404;-1.502;2023-07-13T04:04:48;7.70;;;4.50;;
23866;SDS011;12114;53.404;-1.502;2023-07-13T04:07:33;10.80;;;4.78;;
23866;SDS011;12114;53.404;-1.502;2023-07-13T04:10:16;8.55;;;4.63;;
23866;SDS011;12114;53.404;-1.502;2023-07-13T04:13:00;10.43;;;4.90;;
23866;SDS011;12114;53.404;-1.502;2023-07-13T04:15:44;8.30;;;4.95;;
23866;SDS011;12114;53.404;-1.502;2023-07-13T04:18:28;14.50;;;4.78;;
23866;SDS011;12114;53.404;-1.502;2023-07-13T04:21:13;9.68;;;4.95;;
23866;SDS011;12114;53.404;-1.502;2023-07-13T04:23:57;8.00;;;4.70;;
23866;SDS011;12114;53.404;-1.502;2023-07-13T04:26:41;9.45;;;4.82;;
23866;SDS011;12114;53.404;-1.502;2023-07-13T04:29:25;8.40;;;4.20;;
23866;SDS011;12114;53.404;-1.502;2023-07-13T04:32:09;6.35;;;4.10;;
23866;SDS011;12114;53.404;-1.502;2023-07-13T04:34:53;6.20;;;4.20;;
23866;SDS011;12114;53.404;-1.502;2023-07-13T04:37:39;7.05;;;4.07;;
23866;SDS011;12114;53.404;-1.502;2023-07-13T04:40:24;7.35;;;4.20;;
23866;SDS011;12114;53.404;-1.502;2023-07-13T04:43:07;7.63;;;4.00;;
23866;SDS011;12114;53.404;-1.502;2023-07-13T04:45:51;7.57;;;3.88;;
23866;SDS011;12114;53.404;-1.502;2023-07-13T04:48:35;5.55;;;4.20;;
23866;SDS011;12114;53.404;-1.502;2023-07-13T04:51:19;7.85;;;4.00;;
23866;SDS011;12114;53.404;-1.502;2023-07-13T04:54:04;8.55;;;3.75;;
23866;SDS011;12114;53.404;-1.502;2023-07-13T04:56:48;6.90;;;3.80;;
23866;SDS011;12114;53.404;-1.502;2023-07-13T04:59:32;5.40;;;3.38;;
23866;SDS011;12114;53.404;-1.502;2023-07-13T05:02:16;8.13;;;3.67;;
23866;SDS011;12114;53.404;-1.502;2023-07-13T05:05:01;5.20;;;3.50;;
23866;SDS011;12114;53.404;-1.502;2023-07-13T05:07:45;5.97;;;3.92;;
23866;SDS011;12114;53.404;-1.502;2023-07-13T05:10:29;7.22;;;3.90;;
23866;SDS011;12114;53.404;-1.502;2023-07-13T05:13:13;6.30;;;3.45;;
23866;SDS011;12114;53.404;-1.502;2023-07-13T05:15:57;6.68;;;3.60;;
23866;SDS011;12114;53.404;-1.502;2023-07-13T05:18:42;5.72;;;4.18;;
23866;SDS011;12114;53.404;-1.502;2023-07-13T05:21:26;5.97;;;3.97;;
23866;SDS011;12114;53.404;-1.502;2023-07-13T05:24:10;5.93;;;4.40;;
23866;SDS011;12114;53.404;-1.502;2023-07-13T05:26:53;5.22;;;4.05;;
23866;SDS011;12114;53.404;-1.502;2023-07-13T05:29:37;5.38;;;4.07;;
23866;SDS011;12114;53.404;-1.502;2023-07-13T05:32:24;8.38;;;4.40;;
23866;SDS011;12114;53.404;-1.502;2023-07-13T05:35:08;7.85;;;4.38;;
23866;SDS011;12114;53.404;-1.502;2023-07-13T05:37:52;7.97;;;3.97;;
23866;SDS011;12114;53.404;-1.502;2023-07-13T05:40:36;4.63;;;3.90;;
23866;SDS011;12114;53.404;-1.502;2023-07-13T05:43:20;5.55;;;3.47;;
23866;SDS011;12114;53.404;-1.502;2023-07-13T05:46:04;7.38;;;3.60;;
23866;SDS011;12114;53.404;-1.502;2023-07-13T05:48:48;6.22;;;3.50;;
23866;SDS011;12114;53.404;-1.502;2023-07-13T05:51:32;4.70;;;3.33;;
23866;SDS011;12114;53.404;-1.502;2023-07-13T05:54:16;10.95;;;6.07;;
23866;SDS011;12114;53.404;-1.502;2023-07-13T05:57:00;7.38;;;5.35;;
23866;SDS011;12114;53.404;-1.502;2023-07-13T05:59:44;8.10;;;5.07;;
23866;SDS011;12114;53.404;-1.502;2023-07-13T06:02:28;5.88;;;3.78;;
23866;SDS011;12114;53.404;-1.502;2023-07-13T06:05:12;4.28;;;3.53;;
23866;SDS011;12114;53.404;-1.502;2023-07-13T06:07:56;4.38;;;3.17;;
23866;SDS011;12114;53.404;-1.502;2023-07-13T06:10:40;4.45;;;2.50;;
23866;SDS011;12114;53.404;-1.502;2023-07-13T06:13:24;4.05;;;2.40;;
23866;SDS011;12114;53.404;-1.502;2023-07-13T06:16:08;2.67;;;2.35;;
23866;SDS011;12114;53.404;-1.502;2023-07-13T06:18:52;3.05;;;2.30;;
23866;SDS011;12114;53.404;-1.502;2023-07-13T06:21:36;2.47;;;2.20;;
23866;SDS011;12114;53.404;-1.502;2023-07-13T06:24:20;5.00;;;2.30;;
23866;SDS011;12114;53.404;-1.502;2023-07-13T06:27:04;4.88;;;2.40;;
23866;SDS011;12114;53.404;-1.502;2023-07-13T06:29:47;5.35;;;2.10;;
23866;SDS011;12114;53.404;-1.502;2023-07-13T06:32:31;3.92;;;2.22;;
23866;SDS011;12114;53.404;-1.502;2023-07-13T06:35:15;4.60;;;2.03;;
23866;SDS011;12114;53.404;-1.502;2023-07-13T06:37:59;2.63;;;2.30;;
23866;SDS011;12114;53.404;-1.502;2023-07-13T06:40:44;3.92;;;2.30;;
23866;SDS011;12114;53.404;-1.502;2023-07-13T06:43:28;2.55;;;2.10;;
23866;SDS011;12114;53.404;-1.502;2023-07-13T06:46:13;4.73;;;2.13;;
23866;SDS011;12114;53.404;-1.502;2023-07-13T06:48:57;4.03;;;1.90;;
23866;SDS011;12114;53.404;-1.502;2023-07-13T06:51:40;3.25;;;1.77;;
23866;SDS011;12114;53.404;-1.502;2023-07-13T06:54:24;5.25;;;1.52;;
23866;SDS011;12114;53.404;-1.502;2023-07-13T06:57:08;4.85;;;1.88;;
23866;SDS011;12114;53.404;-1.502;2023-07-13T06:59:52;12.50;;;3.03;;
23866;SDS011;12114;53.404;-1.502;2023-07-13T07:02:36;15.95;;;3.78;;
23866;SDS011;12114;53.404;-1.502;2023-07-13T07:05:20;23.33;;;4.30;;
23866;SDS011;12114;53.404;-1.502;2023-07-13T07:08:05;6.40;;;2.25;;
23866;SDS011;12114;53.404;-1.502;2023-07-13T07:10:49;4.85;;;2.08;;
23866;SDS011;12114;53.404;-1.502;2023-07-13T07:13:37;2.38;;;1.52;;
23866;SDS011;12114;53.404;-1.502;2023-07-13T07:16:21;6.32;;;1.80;;
23866;SDS011;12114;53.404;-1.502;2023-07-13T07:19:05;5.28;;;1.50;;
23866;SDS011;12114;53.404;-1.502;2023-07-13T07:21:49;4.40;;;1.65;;
23866;SDS011;12114;53.404;-1.502;2023-07-13T07:24:33;48.00;;;8.10;;
23866;SDS011;12114;53.404;-1.502;2023-07-13T07:27:17;3.67;;;1.60;;
23866;SDS011;12114;53.404;-1.502;2023-07-13T07:30:01;11.52;;;2.42;;
23866;SDS011;12114;53.404;-1.502;2023-07-13T07:32:45;8.90;;;2.22;;
23866;SDS011;12114;53.404;-1.502;2023-07-13T07:35:29;8.00;;;3.63;;
23866;SDS011;12114;53.404;-1.502;2023-07-13T07:38:13;11.20;;;2.30;;
23866;SDS011;12114;53.404;-1.502;2023-07-13T07:40:57;11.85;;;2.35;;
23866;SDS011;12114;53.404;-1.502;2023-07-13T07:43:41;13.60;;;2.13;;
23866;SDS011;12114;53.404;-1.502;2023-07-13T07:46:25;4.95;;;1.20;;
23866;SDS011;12114;53.404;-1.502;2023-07-13T07:49:09;4.13;;;1.13;;
23866;SDS011;12114;53.404;-1.502;2023-07-13T07:51:53;4.05;;;1.63;;
23866;SDS011;12114;53.404;-1.502;2023-07-13T07:54:37;11.10;;;1.60;;
23866;SDS011;12114;53.404;-1.502;2023-07-13T07:57:21;14.88;;;2.47;;
23866;SDS011;12114;53.404;-1.502;2023-07-13T08:00:06;5.50;;;1.20;;
23866;SDS011;12114;53.404;-1.502;2023-07-13T08:02:50;9.25;;;1.58;;
23866;SDS011;12114;53.404;-1.502;2023-07-13T08:05:35;2.85;;;1.23;;
23866;SDS011;12114;53.404;-1.502;2023-07-13T08:08:19;4.10;;;1.53;;
23866;SDS011;12114;53.404;-1.502;2023-07-13T08:11:04;2.35;;;0.98;;
23866;SDS011;12114;53.404;-1.502;2023-07-13T08:13:49;3.57;;;1.17;;
23866;SDS011;12114;53.404;-1.502;2023-07-13T08:16:33;5.22;;;1.25;;
23866;SDS011;12114;53.404;-1.502;2023-07-13T08:19:17;3.53;;;1.10;;
23866;SDS011;12114;53.404;-1.502;2023-07-13T08:22:01;3.95;;;1.00;;
23866;SDS011;12114;53.404;-1.502;2023-07-13T08:24:45;4.15;;;1.10;;
23866;SDS011;12114;53.404;-1.502;2023-07-13T08:27:31;3.97;;;1.05;;
23866;SDS011;12114;53.404;-1.502;2023-07-13T08:30:14;2.13;;;0.93;;
23866;SDS011;12114;53.404;-1.502;2023-07-13T08:32:58;5.45;;;1.17;;
23866;SDS011;12114;53.404;-1.502;2023-07-13T08:35:45;4.15;;;1.33;;
23866;SDS011;12114;53.404;-1.502;2023-07-13T08:38:29;2.97;;;1.00;;
23866;SDS011;12114;53.404;-1.502;2023-07-13T08:41:14;2.40;;;1.02;;
23866;SDS011;12114;53.404;-1.502;2023-07-13T08:43:59;4.70;;;0.93;;
23866;SDS011;12114;53.404;-1.502;2023-07-13T08:46:44;4.82;;;1.17;;
23866;SDS011;12114;53.404;-1.502;2023-07-13T08:49:29;2.67;;;0.98;;
23866;SDS011;12114;53.404;-1.502;2023-07-13T08:52:16;2.85;;;1.00;;
23866;SDS011;12114;53.404;-1.502;2023-07-13T08:58:23;1.48;;;0.70;;
23866;SDS011;12114;53.404;-1.502;2023-07-13T09:01:28;3.60;;;0.85;;
23866;SDS011;12114;53.404;-1.502;2023-07-13T09:07:11;2.72;;;1.10;;
23866;SDS011;12114;53.404;-1.502;2023-07-13T09:13:23;4.28;;;1.10;;
23866;SDS011;12114;53.404;-1.502;2023-07-13T09:16:10;2.50;;;0.73;;
23866;SDS011;12114;53.404;-1.502;2023-07-13T09:18:56;1.77;;;0.80;;
23866;SDS011;12114;53.404;-1.502;2023-07-13T09:21:43;2.50;;;0.88;;
23866;SDS011;12114;53.404;-1.502;2023-07-13T09:24:38;3.47;;;0.98;;
23866;SDS011;12114;53.404;-1.502;2023-07-13T09:27:24;3.77;;;1.00;;
23866;SDS011;12114;53.404;-1.502;2023-07-13T09:32:59;2.92;;;0.98;;
23866;SDS011;12114;53.404;-1.502;2023-07-13T09:35:43;6.88;;;1.70;;
23866;SDS011;12114;53.404;-1.502;2023-07-13T09:38:27;10.38;;;1.67;;
23866;SDS011;12114;53.404;-1.502;2023-07-13T09:44:09;3.00;;;0.90;;
23866;SDS011;12114;53.404;-1.502;2023-07-13T09:46:54;3.30;;;1.20;;
23866;SDS011;12114;53.404;-1.502;2023-07-13T09:49:38;4.10;;;1.20;;
23866;SDS011;12114;53.404;-1.502;2023-07-13T09:52:22;3.17;;;0.90;;
23866;SDS011;12114;53.404;-1.502;2023-07-13T09:58:19;2.90;;;1.05;;
23866;SDS011;12114;53.404;-1.502;2023-07-13T10:01:04;10.30;;;1.75;;
23866;SDS011;12114;53.404;-1.502;2023-07-13T10:03:53;3.92;;;1.00;;
23866;SDS011;12114;53.404;-1.502;2023-07-13T10:06:37;2.53;;;0.80;;
23866;SDS011;12114;53.404;-1.502;2023-07-13T10:09:23;1.27;;;0.73;;
23866;SDS011;12114;53.404;-1.502;2023-07-13T10:12:14;2.67;;;0.98;;
23866;SDS011;12114;53.404;-1.502;2023-07-13T10:14:58;5.13;;;0.88;;
23866;SDS011;12114;53.404;-1.502;2023-07-13T10:17:44;1.77;;;0.93;;
23866;SDS011;12114;53.404;-1.502;2023-07-13T10:20:28;3.03;;;0.80;;
23866;SDS011;12114;53.404;-1.502;2023-07-13T10:23:14;3.30;;;0.80;;
23866;SDS011;12114;53.404;-1.502;2023-07-13T10:25:59;3.53;;;1.00;;
23866;SDS011;12114;53.404;-1.502;2023-07-13T10:28:43;2.67;;;0.90;;
23866;SDS011;12114;53.404;-1.502;2023-07-13T10:31:29;2.25;;;1.15;;
23866;SDS011;12114;53.404;-1.502;2023-07-13T10:34:14;3.33;;;1.15;;
23866;SDS011;12114;53.404;-1.502;2023-07-13T10:36:58;5.35;;;1.27;;
23866;SDS011;12114;53.404;-1.502;2023-07-13T10:39:44;1.60;;;0.93;;
23866;SDS011;12114;53.404;-1.502;2023-07-13T10:42:29;3.17;;;1.25;;
23866;SDS011;12114;53.404;-1.502;2023-07-13T10:45:15;1.75;;;1.10;;
23866;SDS011;12114;53.404;-1.502;2023-07-13T10:47:59;4.60;;;1.40;;
23866;SDS011;12114;53.404;-1.502;2023-07-13T10:50:44;2.58;;;1.30;;
23866;SDS011;12114;53.404;-1.502;2023-07-13T10:53:30;4.18;;;1.17;;
23866;SDS011;12114;53.404;-1.502;2023-07-13T11:04:41;4.53;;;1.73;;
23866;SDS011;12114;53.404;-1.502;2023-07-13T11:07:27;6.22;;;1.50;;
23866;SDS011;12114;53.404;-1.502;2023-07-13T11:10:30;5.20;;;1.30;;
23866;SDS011;12114;53.404;-1.502;2023-07-13T11:24:49;6.00;;;1.30;;
23866;SDS011;12114;53.404;-1.502;2023-07-13T11:27:38;3.20;;;1.35;;
23866;SDS011;12114;53.404;-1.502;2023-07-13T11:30:24;4.70;;;1.50;;
23866;SDS011;12114;53.404;-1.502;2023-07-13T11:36:15;3.20;;;1.17;;
23866;SDS011;12114;53.404;-1.502;2023-07-13T11:41:54;7.45;;;1.48;;
23866;SDS011;12114;53.404;-1.502;2023-07-13T11:44:46;2.42;;;1.38;;
23866;SDS011;12114;53.404;-1.502;2023-07-13T11:47:30;3.20;;;1.33;;
23866;SDS011;12114;53.404;-1.502;2023-07-13T11:50:22;3.42;;;1.50;;
23866;SDS011;12114;53.404;-1.502;2023-07-13T11:53:08;4.00;;;1.15;;
23866;SDS011;12114;53.404;-1.502;2023-07-13T11:55:53;5.00;;;1.30;;
23866;SDS011;12114;53.404;-1.502;2023-07-13T11:58:37;3.45;;;1.30;;
23866;SDS011;12114;53.404;-1.502;2023-07-13T12:01:24;1.30;;;0.80;;
23866;SDS011;12114;53.404;-1.502;2023-07-13T12:04:11;2.47;;;0.95;;
23866;SDS011;12114;53.404;-1.502;2023-07-13T12:07:15;3.25;;;0.98;;
23866;SDS011;12114;53.404;-1.502;2023-07-13T12:10:10;2.20;;;1.08;;
23866;SDS011;12114;53.404;-1.502;2023-07-13T12:13:01;3.10;;;1.17;;
23866;SDS011;12114;53.404;-1.502;2023-07-13T12:15:46;4.10;;;1.15;;
23866;SDS011;12114;53.404;-1.502;2023-07-13T12:18:32;2.28;;;1.10;;
23866;SDS011;12114;53.404;-1.502;2023-07-13T12:21:18;4.57;;;1.20;;
23866;SDS011;12114;53.404;-1.502;2023-07-13T12:24:02;3.30;;;1.08;;
23866;SDS011;12114;53.404;-1.502;2023-07-13T12:27:03;3.55;;;1.00;;
23866;SDS011;12114;53.404;-1.502;2023-07-13T12:29:51;4.15;;;1.17;;
23866;SDS011;12114;53.404;-1.502;2023-07-13T12:32:37;3.80;;;0.90;;
23866;SDS011;12114;53.404;-1.502;2023-07-13T12:35:21;2.00;;;0.80;;
23866;SDS011;12114;53.404;-1.502;2023-07-13T12:38:07;2.72;;;1.00;;
23866;SDS011;12114;53.404;-1.502;2023-07-13T12:40:52;3.45;;;1.10;;
23866;SDS011;12114;53.404;-1.502;2023-07-13T12:43:36;1.92;;;0.77;;
23866;SDS011;12114;53.404;-1.502;2023-07-13T12:46:24;2.30;;;1.10;;
23866;SDS011;12114;53.404;-1.502;2023-07-13T12:49:07;2.28;;;1.10;;
23866;SDS011;12114;53.404;-1.502;2023-07-13T12:51:55;2.85;;;0.90;;
23866;SDS011;12114;53.404;-1.502;2023-07-13T12:54:40;3.00;;;0.90;;
23866;SDS011;12114;53.404;-1.502;2023-07-13T12:57:24;3.00;;;1.23;;
23866;SDS011;12114;53.404;-1.502;2023-07-13T13:00:18;1.70;;;1.02;;
23866;SDS011;12114;53.404;-1.502;2023-07-13T13:03:05;2.53;;;1.00;;
23866;SDS011;12114;53.404;-1.502;2023-07-13T13:05:56;2.25;;;0.90;;
23866;SDS011;12114;53.404;-1.502;2023-07-13T13:08:40;1.95;;;0.90;;
23866;SDS011;12114;53.404;-1.502;2023-07-13T13:11:31;1.90;;;1.00;;
23866;SDS011;12114;53.404;-1.502;2023-07-13T13:14:15;4.78;;;0.95;;
23866;SDS011;12114;53.404;-1.502;2023-07-13T13:16:59;4.07;;;1.05;;
23866;SDS011;12114;53.404;-1.502;2023-07-13T13:19:44;2.60;;;0.98;;
23866;SDS011;12114;53.404;-1.502;2023-07-13T13:22:29;2.60;;;1.02;;
23866;SDS011;12114;53.404;-1.502;2023-07-13T13:25:13;2.35;;;1.08;;
23866;SDS011;12114;53.404;-1.502;2023-07-13T13:27:58;2.88;;;0.98;;
23866;SDS011;12114;53.404;-1.502;2023-07-13T13:30:42;2.15;;;1.02;;
23866;SDS011;12114;53.404;-1.502;2023-07-13T13:33:27;5.40;;;1.33;;
23866;SDS011;12114;53.404;-1.502;2023-07-13T13:36:17;3.70;;;1.20;;
23866;SDS011;12114;53.404;-1.502;2023-07-13T13:39:02;2.53;;;0.88;;
23866;SDS011;12114;53.404;-1.502;2023-07-13T13:41:48;3.97;;;1.08;;
23866;SDS011;12114;53.404;-1.502;2023-07-13T13:44:32;4.60;;;1.40;;
23866;SDS011;12114;53.404;-1.502;2023-07-13T13:47:30;2.65;;;0.98;;
23866;SDS011;12114;53.404;-1.502;2023-07-13T13:50:19;3.08;;;1.17;;
23866;SDS011;12114;53.404;-1.502;2023-07-13T13:53:04;2.67;;;1.20;;
23866;SDS011;12114;53.404;-1.502;2023-07-13T13:55:48;2.08;;;1.27;;
23866;SDS011;12114;53.404;-1.502;2023-07-13T13:58:31;2.00;;;1.10;;
23866;SDS011;12114;53.404;-1.502;2023-07-13T14:01:30;3.47;;;1.83;;
23866;SDS011;12114;53.404;-1.502;2023-07-13T14:04:16;3.47;;;1.45;;
23866;SDS011;12114;53.404;-1.502;2023-07-13T14:07:01;3.63;;;1.23;;
23866;SDS011;12114;53.404;-1.502;2023-07-13T14:09:46;3.55;;;1.20;;
23866;SDS011;12114;53.404;-1.502;2023-07-13T14:12:30;3.45;;;1.00;;
23866;SDS011;12114;53.404;-1.502;2023-07-13T14:15:19;4.13;;;0.90;;
23866;SDS011;12114;53.404;-1.502;2023-07-13T14:18:03;3.97;;;1.00;;
23866;SDS011;12114;53.404;-1.502;2023-07-13T14:20:48;2.90;;;1.23;;
23866;SDS011;12114;53.404;-1.502;2023-07-13T14:23:32;2.28;;;1.25;;
23866;SDS011;12114;53.404;-1.502;2023-07-13T14:26:17;3.10;;;1.15;;
23866;SDS011;12114;53.404;-1.502;2023-07-13T14:29:01;1.83;;;1.27;;
23866;SDS011;12114;53.404;-1.502;2023-07-13T14:31:45;2.55;;;1.20;;
23866;SDS011;12114;53.404;-1.502;2023-07-13T14:34:30;4.07;;;1.27;;
23866;SDS011;12114;53.404;-1.502;2023-07-13T14:37:14;1.60;;;0.95;;
23866;SDS011;12114;53.404;-1.502;2023-07-13T14:39:59;2.40;;;1.20;;
23866;SDS011;12114;53.404;-1.502;2023-07-13T14:42:44;2.67;;;1.27;;
23866;SDS011;12114;53.404;-1.502;2023-07-13T14:45:27;1.52;;;0.90;;
23866;SDS011;12114;53.404;-1.502;2023-07-13T14:48:16;3.13;;;1.23;;
23866;SDS011;12114;53.404;-1.502;2023-07-13T14:51:01;1.98;;;1.02;;
23866;SDS011;12114;53.404;-1.502;2023-07-13T14:53:45;2.70;;;1.23;;
23866;SDS011;12114;53.404;-1.502;2023-07-13T14:56:30;3.63;;;1.42;;
23866;SDS011;12114;53.404;-1.502;2023-07-13T14:59:14;2.22;;;1.40;;
23866;SDS011;12114;53.404;-1.502;2023-07-13T15:01:58;2.65;;;1.58;;
23866;SDS011;12114;53.404;-1.502;2023-07-13T15:04:42;3.03;;;1.42;;
23866;SDS011;12114;53.404;-1.502;2023-07-13T15:07:26;1.85;;;1.13;;
23866;SDS011;12114;53.404;-1.502;2023-07-13T15:10:17;3.13;;;1.33;;
23866;SDS011;12114;53.404;-1.502;2023-07-13T15:13:23;2.10;;;1.23;;
23866;SDS011;12114;53.404;-1.502;2023-07-13T15:16:28;4.60;;;1.33;;
23866;SDS011;12114;53.404;-1.502;2023-07-13T15:19:11;2.08;;;1.25;;
23866;SDS011;12114;53.404;-1.502;2023-07-13T15:21:55;4.57;;;1.58;;
23866;SDS011;12114;53.404;-1.502;2023-07-13T15:24:41;3.42;;;1.52;;
23866;SDS011;12114;53.404;-1.502;2023-07-13T15:27:25;4.05;;;1.55;;
23866;SDS011;12114;53.404;-1.502;2023-07-13T15:30:10;3.13;;;1.50;;
23866;SDS011;12114;53.404;-1.502;2023-07-13T15:32:55;4.35;;;1.70;;
23866;SDS011;12114;53.404;-1.502;2023-07-13T15:35:40;2.65;;;1.30;;
23866;SDS011;12114;53.404;-1.502;2023-07-13T15:38:27;4.32;;;1.75;;
23866;SDS011;12114;53.404;-1.502;2023-07-13T15:41:25;3.00;;;1.27;;
23866;SDS011;12114;53.404;-1.502;2023-07-13T15:47:08;2.60;;;1.30;;
23866;SDS011;12114;53.404;-1.502;2023-07-13T15:49:53;3.08;;;1.33;;
23866;SDS011;12114;53.404;-1.502;2023-07-13T15:52:37;2.10;;;1.20;;
23866;SDS011;12114;53.404;-1.502;2023-07-13T15:55:21;2.65;;;1.08;;
23866;SDS011;12114;53.404;-1.502;2023-07-13T15:58:08;4.97;;;1.40;;
23866;SDS011;12114;53.404;-1.502;2023-07-13T16:00:53;2.65;;;1.10;;
23866;SDS011;12114;53.404;-1.502;2023-07-13T16:03:37;2.45;;;1.20;;
23866;SDS011;12114;53.404;-1.502;2023-07-13T16:06:34;2.80;;;1.40;;
23866;SDS011;12114;53.404;-1.502;2023-07-13T16:09:20;3.33;;;1.02;;
23866;SDS011;12114;53.404;-1.502;2023-07-13T16:12:10;3.00;;;1.15;;
23866;SDS011;12114;53.404;-1.502;2023-07-13T16:14:55;2.55;;;1.30;;
23866;SDS011;12114;53.404;-1.502;2023-07-13T16:17:39;2.25;;;1.10;;
23866;SDS011;12114;53.404;-1.502;2023-07-13T16:20:24;2.97;;;1.45;;
23866;SDS011;12114;53.404;-1.502;2023-07-13T16:23:09;2.30;;;1.15;;
23866;SDS011;12114;53.404;-1.502;2023-07-13T16:25:55;3.47;;;1.40;;
23866;SDS011;12114;53.404;-1.502;2023-07-13T16:28:39;3.97;;;1.30;;
23866;SDS011;12114;53.404;-1.502;2023-07-13T16:31:23;3.65;;;1.63;;
23866;SDS011;12114;53.404;-1.502;2023-07-13T16:34:07;2.47;;;1.45;;
23866;SDS011;12114;53.404;-1.502;2023-07-13T16:36:54;3.67;;;1.75;;
23866;SDS011;12114;53.404;-1.502;2023-07-13T16:39:38;4.95;;;1.38;;
23866;SDS011;12114;53.404;-1.502;2023-07-13T16:42:24;3.70;;;1.40;;
23866;SDS011;12114;53.404;-1.502;2023-07-13T16:45:11;3.72;;;1.38;;
23866;SDS011;12114;53.404;-1.502;2023-07-13T16:47:55;2.33;;;1.38;;
23866;SDS011;12114;53.404;-1.502;2023-07-13T16:50:40;2.90;;;1.60;;
23866;SDS011;12114;53.404;-1.502;2023-07-13T16:53:26;6.13;;;1.50;;
23866;SDS011;12114;53.404;-1.502;2023-07-13T16:56:15;3.63;;;1.42;;
23866;SDS011;12114;53.404;-1.502;2023-07-13T16:59:00;3.95;;;1.60;;
23866;SDS011;12114;53.404;-1.502;2023-07-13T17:01:44;3.70;;;1.10;;
23866;SDS011;12114;53.404;-1.502;2023-07-13T17:04:29;4.28;;;1.55;;
23866;SDS011;12114;53.404;-1.502;2023-07-13T17:07:13;7.40;;;1.60;;